createdAt,value
2022-08-11T00:00:13.928Z,100.00
2022-08-11T00:02:43.406Z,100.00
2022-08-11T00:05:13.604Z,100.00
2022-08-11T00:07:49.372Z,100.00
2022-08-11T00:10:19.158Z,100.00
2022-08-11T00:12:54.823Z,100.00
2022-08-11T00:15:22.537Z,100.00
2022-08-11T00:17:50.693Z,100.00
2022-08-11T00:20:17.603Z,100.00
2022-08-11T00:22:46.758Z,100.00
2022-08-11T00:25:18.902Z,100.00
2022-08-11T00:27:47.172Z,100.00
2022-08-11T00:30:15.075Z,100.00
2022-08-11T00:32:44.547Z,100.00
2022-08-11T00:35:55.335Z,100.00
2022-08-11T00:38:01.407Z,100.00
2022-08-11T00:40:40.251Z,100.00
2022-08-11T00:43:28.945Z,100.00
2022-08-11T00:46:01.548Z,100.00
2022-08-11T00:49:16.409Z,100.00
2022-08-11T00:52:04.617Z,100.00
2022-08-11T00:54:39.255Z,100.00
2022-08-11T00:57:47.835Z,100.00
2022-08-11T01:00:25.491Z,100.00
2022-08-11T01:03:14.921Z,100.00
2022-08-11T01:06:05.255Z,100.00
2022-08-11T01:09:01.746Z,100.00
2022-08-11T01:11:55.495Z,100.00
2022-08-11T01:14:44.621Z,100.00
2022-08-11T01:17:26.583Z,100.00
2022-08-11T01:20:45.728Z,100.00
2022-08-11T01:23:36.032Z,100.00
2022-08-11T01:26:39.483Z,100.00
2022-08-11T01:29:31.013Z,100.00
2022-08-11T01:32:16.515Z,100.00
2022-08-11T01:35:07.511Z,100.00
2022-08-11T01:37:47.886Z,100.00
2022-08-11T01:40:30.556Z,100.00
2022-08-11T01:43:38.783Z,100.00
2022-08-11T01:46:26.732Z,100.00
2022-08-11T01:49:58.489Z,100.00
2022-08-11T01:52:16.160Z,100.00
2022-08-11T01:55:24.194Z,100.00
2022-08-11T01:58:02.980Z,100.00
2022-08-11T02:00:31.242Z,100.00
2022-08-11T02:03:27.682Z,100.00
2022-08-11T02:06:03.166Z,100.00
2022-08-11T02:08:57.391Z,100.00
2022-08-11T02:11:31.029Z,100.00
2022-08-11T02:14:13.773Z,100.00
2022-08-11T02:16:55.534Z,100.00
2022-08-11T02:20:18.074Z,100.00
2022-08-11T02:23:58.739Z,100.00
2022-08-11T02:26:13.750Z,100.00
2022-08-11T02:29:10.761Z,100.00
2022-08-11T02:32:28.792Z,100.00
2022-08-11T02:35:12.302Z,100.00
2022-08-11T02:37:45.410Z,100.00
2022-08-11T02:40:21.186Z,100.00
2022-08-11T02:43:26.170Z,100.00
2022-08-11T02:46:07.022Z,100.00
2022-08-11T02:49:17.721Z,100.00
2022-08-11T02:52:02.977Z,100.00
2022-08-11T02:54:47.741Z,100.00
2022-08-11T02:57:33.401Z,100.00
2022-08-11T03:00:07.470Z,100.00
2022-08-11T03:03:05.754Z,100.00
2022-08-11T03:06:14.897Z,100.00
2022-08-11T03:09:03.929Z,100.00
2022-08-11T03:12:07.961Z,100.00
2022-08-11T03:15:11.629Z,100.00
2022-08-11T03:17:43.106Z,100.00
2022-08-11T03:20:37.817Z,100.00
2022-08-11T03:23:20.208Z,100.00
2022-08-11T03:26:09.210Z,100.00
2022-08-11T03:29:08.278Z,100.00
2022-08-11T03:31:54.190Z,100.00
2022-08-11T03:34:26.914Z,100.00
2022-08-11T03:37:37.423Z,100.00
2022-08-11T03:40:39.246Z,100.00
2022-08-11T03:43:24.265Z,100.00
2022-08-11T03:45:57.376Z,100.00
2022-08-11T03:48:42.694Z,100.00
2022-08-11T03:51:20.173Z,100.00
2022-08-11T03:54:41.096Z,100.00
2022-08-11T03:57:36.541Z,100.00
2022-08-11T04:00:25.064Z,100.00
2022-08-11T04:03:05.910Z,100.00
2022-08-11T04:05:57.267Z,100.00
2022-08-11T04:08:58.095Z,100.00
2022-08-11T04:11:43.415Z,100.00
2022-08-11T04:15:01.534Z,100.00
2022-08-11T04:17:46.389Z,100.00
2022-08-11T04:20:31.821Z,100.00
2022-08-11T04:24:35.484Z,100.00
2022-08-11T04:27:02.057Z,100.00
2022-08-11T04:30:02.206Z,100.00
2022-08-11T04:32:52.930Z,100.00
2022-08-11T04:35:51.458Z,100.00
2022-08-11T04:38:46.473Z,100.00
2022-08-11T04:42:04.972Z,100.00
2022-08-11T04:45:01.992Z,100.00
2022-08-11T04:48:13.248Z,100.00
2022-08-11T04:51:17.090Z,100.00
2022-08-11T04:54:06.186Z,100.00
2022-08-11T04:56:54.105Z,100.00
2022-08-11T05:00:07.325Z,100.00
2022-08-11T05:03:08.297Z,100.00
2022-08-11T05:05:55.356Z,100.00
2022-08-11T05:08:43.327Z,100.00
2022-08-11T05:11:47.119Z,100.00
2022-08-11T05:14:32.456Z,100.00
2022-08-11T05:17:34.099Z,100.00
2022-08-11T05:20:22.909Z,100.00
2022-08-11T05:23:09.777Z,100.00
2022-08-11T05:26:44.461Z,100.00
2022-08-11T05:29:19.820Z,100.00
2022-08-11T05:32:18.081Z,100.00
2022-08-11T05:34:54.414Z,100.00
2022-08-11T05:37:30.279Z,100.00
2022-08-11T05:40:35.619Z,100.00
2022-08-11T05:43:26.353Z,100.00
2022-08-11T05:46:23.823Z,100.00
2022-08-11T05:49:09.774Z,100.00
2022-08-11T05:52:13.005Z,100.00
2022-08-11T05:55:06.308Z,100.00
2022-08-11T05:57:48.317Z,100.00
2022-08-11T06:00:19.072Z,100.00
2022-08-11T06:02:51.754Z,100.00
2022-08-11T06:05:25.847Z,100.00
2022-08-11T06:07:57.187Z,100.00
2022-08-11T06:10:33.883Z,100.00
2022-08-11T06:13:01.517Z,100.00
2022-08-11T06:15:30.171Z,100.00
2022-08-11T06:18:05.233Z,100.00
2022-08-11T06:20:37.649Z,100.00
2022-08-11T06:23:07.064Z,100.00
2022-08-11T06:25:36.059Z,100.00
2022-08-11T06:28:04.823Z,100.00
2022-08-11T06:30:40.615Z,100.00
2022-08-11T06:33:20.614Z,100.00
2022-08-11T06:36:29.664Z,100.00
2022-08-11T06:39:23.539Z,100.00
2022-08-11T06:42:08.166Z,100.00
2022-08-11T06:44:42.273Z,100.00
2022-08-11T06:47:11.828Z,100.00
2022-08-11T06:50:02.598Z,100.00
2022-08-11T06:52:37.419Z,100.00
2022-08-11T06:55:55.746Z,100.00
2022-08-11T06:58:26.950Z,100.00
2022-08-11T07:00:55.326Z,100.00
2022-08-11T07:03:22.592Z,100.00
2022-08-11T07:06:04.145Z,100.00
2022-08-11T07:08:49.486Z,100.00
2022-08-11T07:11:40.883Z,100.00
2022-08-11T07:14:27.321Z,100.00
2022-08-11T07:16:54.354Z,100.00
2022-08-11T07:19:43.146Z,100.00
2022-08-11T07:22:30.117Z,100.00
2022-08-11T07:25:19.293Z,100.00
2022-08-11T07:28:12.828Z,100.00
2022-08-11T07:30:41.816Z,100.00
2022-08-11T07:34:05.270Z,100.00
2022-08-11T07:36:00.790Z,100.00
2022-08-11T07:38:47.641Z,100.00
2022-08-11T07:41:16.013Z,100.00
2022-08-11T07:43:45.391Z,100.00
2022-08-11T07:46:31.183Z,100.00
2022-08-11T07:49:17.667Z,100.00
2022-08-11T07:52:03.397Z,100.00
2022-08-11T07:54:33.386Z,100.00
2022-08-11T07:57:09.130Z,100.00
2022-08-11T08:00:03.739Z,100.00
2022-08-11T08:03:01.952Z,100.00
2022-08-11T08:05:47.596Z,100.00
2022-08-11T08:08:34.617Z,100.00
2022-08-11T08:11:25.507Z,100.00
2022-08-11T08:14:13.279Z,100.00
2022-08-11T08:16:58.989Z,100.00
2022-08-11T08:19:26.088Z,100.00
2022-08-11T08:21:52.772Z,100.00
2022-08-11T08:24:24.704Z,100.00
2022-08-11T08:27:00.453Z,100.00
2022-08-11T08:29:48.622Z,100.00
2022-08-11T08:32:16.841Z,100.00
2022-08-11T08:34:44.117Z,100.00
2022-08-11T08:37:16.057Z,100.00
2022-08-11T08:40:03.534Z,100.00
2022-08-11T08:42:44.869Z,100.00
2022-08-11T08:45:16.362Z,100.00
2022-08-11T08:48:04.545Z,100.00
2022-08-11T08:50:53.308Z,100.00
2022-08-11T08:53:24.327Z,100.00
2022-08-11T08:55:53.170Z,100.00
2022-08-11T08:58:20.997Z,100.00
2022-08-11T09:00:50.865Z,100.00
2022-08-11T09:06:10.423Z,100.00
2022-08-11T09:08:37.813Z,100.00
2022-08-11T09:11:23.609Z,100.00
2022-08-11T09:14:05.598Z,100.00
2022-08-11T09:16:35.768Z,100.00
2022-08-11T09:19:03.147Z,100.00
2022-08-11T09:21:46.407Z,100.00
2022-08-11T09:24:38.502Z,100.00
2022-08-11T09:27:07.268Z,100.00
2022-08-11T09:29:34.243Z,97.16
2022-08-11T09:32:02.843Z,100.00
2022-08-11T09:34:29.836Z,100.00
2022-08-11T09:37:19.569Z,100.00
2022-08-11T09:40:27.262Z,96.13
2022-08-11T09:43:13.802Z,95.62
2022-08-11T09:45:40.787Z,89.70
2022-08-11T09:48:07.706Z,89.66
2022-08-11T09:50:35.150Z,92.99
2022-08-11T09:53:35.123Z,86.53
2022-08-11T09:56:31.887Z,82.60
2022-08-11T09:58:59.235Z,80.44
2022-08-11T10:01:30.355Z,81.22
2022-08-11T10:04:11.917Z,79.01
2022-08-11T10:06:57.702Z,80.34
2022-08-11T10:09:25.537Z,78.89
2022-08-11T10:11:57.945Z,78.74
2022-08-11T10:14:45.112Z,79.85
2022-08-11T10:17:13.499Z,86.13
2022-08-11T10:19:42.322Z,79.29
2022-08-11T10:22:27.976Z,78.49
2022-08-11T10:25:14.902Z,74.87
2022-08-11T10:28:17.160Z,80.08
2022-08-11T10:31:05.468Z,75.90
2022-08-11T10:33:59.033Z,79.12
2022-08-11T10:36:32.551Z,77.77
2022-08-11T10:39:03.816Z,77.07
2022-08-11T10:42:06.757Z,74.09
2022-08-11T10:44:41.155Z,81.67
2022-08-11T10:47:27.113Z,79.44
2022-08-11T10:50:12.863Z,79.37
2022-08-11T10:53:05.890Z,77.43
2022-08-11T10:55:51.662Z,73.70
2022-08-11T10:58:37.492Z,72.49
2022-08-11T11:01:05.373Z,73.49
2022-08-11T11:03:34.710Z,78.76
2022-08-11T11:06:13.271Z,76.71
2022-08-11T11:09:09.027Z,75.58
2022-08-11T11:11:57.826Z,74.37
2022-08-11T11:14:50.664Z,77.09
2022-08-11T11:17:25.926Z,74.43
2022-08-11T11:19:57.224Z,73.73
2022-08-11T11:22:38.419Z,73.33
2022-08-11T11:25:24.292Z,73.89
2022-08-11T11:28:17.169Z,72.92
2022-08-11T11:30:54.192Z,71.64
2022-08-11T11:34:06.630Z,70.34
2022-08-11T11:36:44.965Z,72.31
2022-08-11T11:39:14.410Z,71.39
2022-08-11T11:41:42.084Z,71.44
2022-08-11T11:44:11.984Z,72.29
2022-08-11T11:46:39.161Z,68.97
2022-08-11T11:49:16.827Z,70.66
2022-08-11T11:51:49.859Z,69.72
2022-08-11T11:54:26.742Z,70.35
2022-08-11T11:56:56.873Z,70.33
2022-08-11T11:59:44.703Z,69.70
2022-08-11T12:02:13.515Z,67.08
2022-08-11T12:04:45.816Z,69.00
2022-08-11T12:07:30.971Z,65.72
2022-08-11T12:09:58.559Z,71.15
2022-08-11T12:12:44.969Z,64.78
2022-08-11T12:15:12.428Z,66.29
2022-08-11T12:17:39.429Z,67.48
2022-08-11T12:23:47.522Z,65.62
2022-08-11T12:26:34.147Z,65.77
2022-08-11T12:29:05.691Z,64.78
2022-08-11T12:31:36.756Z,65.81
2022-08-11T12:34:04.242Z,65.25
2022-08-11T12:36:35.631Z,58.75
2022-08-11T12:39:16.095Z,63.64
2022-08-11T12:42:09.710Z,59.83
2022-08-11T12:44:55.732Z,60.41
2022-08-11T12:47:22.483Z,60.62
2022-08-11T12:50:23.177Z,60.71
2022-08-11T12:52:59.938Z,59.22
2022-08-11T12:56:03.335Z,58.48
2022-08-11T12:58:32.304Z,56.71
2022-08-11T13:01:17.650Z,55.79
2022-08-11T13:04:03.000Z,58.91
2022-08-11T13:06:30.462Z,57.44
2022-08-11T13:09:01.075Z,57.90
2022-08-11T13:11:56.107Z,55.32
2022-08-11T13:14:26.244Z,56.81
2022-08-11T13:17:11.657Z,54.04
2022-08-11T13:19:38.581Z,55.72
2022-08-11T13:22:07.237Z,56.21
2022-08-11T13:24:34.339Z,56.56
2022-08-11T13:27:09.715Z,56.47
2022-08-11T13:29:36.575Z,55.24
2022-08-11T13:32:03.583Z,55.40
2022-08-11T13:34:38.619Z,55.90
2022-08-11T13:37:05.678Z,56.43
2022-08-11T13:39:34.057Z,54.38
2022-08-11T13:42:01.889Z,54.75
2022-08-11T13:44:31.086Z,56.86
2022-08-11T13:47:01.533Z,55.14
2022-08-11T13:49:30.368Z,52.37
2022-08-11T13:51:57.666Z,54.51
2022-08-11T13:54:31.537Z,54.02
2022-08-11T13:57:03.621Z,52.19
2022-08-11T13:59:51.740Z,52.63
2022-08-11T14:02:29.032Z,53.86
2022-08-11T14:05:12.420Z,55.74
2022-08-11T14:07:42.390Z,53.53
2022-08-11T14:10:13.487Z,56.24
2022-08-11T14:13:00.259Z,53.18
2022-08-11T14:15:34.647Z,56.09
2022-08-11T14:18:05.727Z,52.84
2022-08-11T14:20:53.613Z,51.34
2022-08-11T14:23:39.081Z,53.89
2022-08-11T14:26:26.875Z,51.36
2022-08-11T14:29:24.161Z,51.83
2022-08-11T14:31:54.276Z,54.75
2022-08-11T14:34:24.039Z,51.99
2022-08-11T14:36:56.763Z,52.05
2022-08-11T14:39:29.512Z,52.65
2022-08-11T14:42:26.176Z,52.79
2022-08-11T14:45:15.349Z,51.64
2022-08-11T14:47:46.447Z,52.32
2022-08-11T14:50:15.255Z,53.09
2022-08-11T14:52:52.701Z,50.05
2022-08-11T14:55:39.526Z,48.53
2022-08-11T14:58:10.456Z,49.36
2022-08-11T15:00:38.087Z,48.83
2022-08-11T15:03:12.433Z,50.54
2022-08-11T15:05:56.765Z,49.04
2022-08-11T15:08:46.279Z,49.81
2022-08-11T15:11:33.058Z,47.79
2022-08-11T15:14:01.715Z,47.50
2022-08-11T15:16:50.412Z,48.66
2022-08-11T15:19:21.732Z,48.83
2022-08-11T15:22:08.389Z,48.73
2022-08-11T15:24:38.457Z,47.35
2022-08-11T15:27:29.563Z,45.66
2022-08-11T15:30:32.556Z,46.68
2022-08-11T15:33:22.092Z,46.70
2022-08-11T15:36:07.865Z,45.77
2022-08-11T15:38:36.377Z,46.62
2022-08-11T15:41:23.316Z,43.97
2022-08-11T15:44:15.199Z,44.04
2022-08-11T15:46:45.329Z,45.11
2022-08-11T15:49:23.874Z,43.56
2022-08-11T15:52:02.874Z,45.16
2022-08-11T15:54:32.433Z,45.43
2022-08-11T15:57:01.817Z,46.89
2022-08-11T15:59:50.855Z,46.63
2022-08-11T16:02:38.670Z,47.97
2022-08-11T16:05:10.797Z,48.42
2022-08-11T16:07:40.951Z,44.96
2022-08-11T16:10:19.367Z,45.38
2022-08-11T16:13:21.764Z,44.91
2022-08-11T16:16:14.379Z,44.72
2022-08-11T16:18:55.736Z,44.88
2022-08-11T16:21:35.228Z,44.78
2022-08-11T16:24:06.905Z,46.47
2022-08-11T16:27:11.733Z,44.93
2022-08-11T16:29:25.247Z,44.21
2022-08-11T16:32:12.081Z,41.90
2022-08-11T16:34:57.858Z,41.55
2022-08-11T16:37:43.591Z,41.57
2022-08-11T16:40:11.788Z,41.91
2022-08-11T16:43:04.604Z,42.84
2022-08-11T16:45:59.913Z,43.12
2022-08-11T16:48:33.442Z,43.46
2022-08-11T16:51:04.750Z,43.59
2022-08-11T16:54:03.645Z,43.73
2022-08-11T16:56:25.421Z,44.25
2022-08-11T16:59:15.885Z,44.06
2022-08-11T17:01:53.293Z,44.23
2022-08-11T17:04:47.016Z,44.83
2022-08-11T17:07:50.105Z,44.87
2022-08-11T17:10:55.415Z,44.81
2022-08-11T17:13:43.743Z,44.99
2022-08-11T17:16:12.941Z,46.46
2022-08-11T17:18:50.388Z,44.95
2022-08-11T17:21:24.039Z,44.96
2022-08-11T17:23:55.146Z,45.01
2022-08-11T17:26:27.201Z,45.86
2022-08-11T17:28:59.546Z,47.13
2022-08-11T17:31:46.429Z,46.65
2022-08-11T17:34:32.183Z,47.88
2022-08-11T17:37:00.189Z,48.34
2022-08-11T17:39:30.078Z,50.52
2022-08-11T17:42:16.805Z,50.14
2022-08-11T17:45:02.800Z,51.93
2022-08-11T17:47:49.133Z,52.58
2022-08-11T17:50:17.570Z,52.79
2022-08-11T17:53:04.926Z,56.93
2022-08-11T17:55:53.516Z,60.10
2022-08-11T17:58:39.675Z,60.82
2022-08-11T18:01:10.468Z,67.11
2022-08-11T18:03:40.032Z,60.92
2022-08-11T18:06:12.819Z,64.37
2022-08-11T18:09:03.638Z,68.37
2022-08-11T18:12:06.719Z,70.34
2022-08-11T18:14:56.993Z,76.21
2022-08-11T18:17:42.378Z,75.48
2022-08-11T18:20:28.719Z,74.61
2022-08-11T18:23:14.542Z,75.97
2022-08-11T18:26:07.292Z,78.24
2022-08-11T18:29:05.053Z,84.25
2022-08-11T18:31:56.104Z,84.15
2022-08-11T18:34:49.294Z,82.01
2022-08-11T18:37:38.255Z,85.41
2022-08-11T18:40:29.693Z,83.08
2022-08-11T18:43:16.954Z,87.45
2022-08-11T18:46:06.193Z,89.16
2022-08-11T18:48:54.076Z,91.22
2022-08-11T18:51:48.011Z,90.70
2022-08-11T18:54:34.473Z,94.98
2022-08-11T18:57:21.114Z,94.07
2022-08-11T19:00:07.321Z,97.94
2022-08-11T19:02:58.269Z,97.88
2022-08-11T19:06:35.222Z,98.92
2022-08-11T19:08:56.566Z,100.00
2022-08-11T19:11:46.252Z,98.83
2022-08-11T19:14:34.480Z,100.00
2022-08-11T19:17:43.479Z,97.97
2022-08-11T19:20:30.206Z,97.68
2022-08-11T19:23:16.092Z,95.77
2022-08-11T19:26:05.368Z,92.81
2022-08-11T19:28:53.018Z,92.93
2022-08-11T19:31:43.830Z,92.28
2022-08-11T19:34:40.261Z,86.84
2022-08-11T19:37:26.629Z,89.83
2022-08-11T19:40:14.042Z,86.44
2022-08-11T19:43:00.769Z,89.40
2022-08-11T19:45:52.508Z,87.06
2022-08-11T19:48:42.305Z,88.60
2022-08-11T19:51:29.088Z,89.29
2022-08-11T19:54:16.011Z,87.13
2022-08-11T19:57:01.942Z,86.35
2022-08-11T19:59:47.191Z,85.75
2022-08-11T20:02:32.565Z,85.79
2022-08-11T20:05:17.836Z,83.68
2022-08-11T20:08:05.266Z,84.39
2022-08-11T20:10:52.607Z,84.57
2022-08-11T20:13:41.787Z,81.80
2022-08-11T20:16:30.503Z,80.17
2022-08-11T20:19:16.932Z,79.69
2022-08-11T20:22:07.501Z,80.53
2022-08-11T20:24:54.546Z,80.59
2022-08-11T20:27:42.607Z,81.33
2022-08-11T20:30:28.477Z,82.10
2022-08-11T20:33:13.616Z,81.89
2022-08-11T20:35:59.040Z,83.84
2022-08-11T20:38:47.976Z,87.68
2022-08-11T20:41:33.068Z,88.50
2022-08-11T20:44:39.189Z,88.75
2022-08-11T20:47:24.919Z,90.50
2022-08-11T20:50:17.880Z,89.21
2022-08-11T20:53:06.379Z,91.02
2022-08-11T20:55:53.898Z,90.45
2022-08-11T21:01:46.377Z,90.28
2022-08-11T21:04:32.870Z,88.88
2022-08-11T21:07:23.552Z,90.75
2022-08-11T21:10:26.148Z,91.43
2022-08-11T21:13:25.573Z,94.53
2022-08-11T21:16:25.714Z,99.14
2022-08-11T21:20:01.200Z,100.00
2022-08-11T21:22:59.237Z,100.00
2022-08-11T21:26:02.160Z,100.00
2022-08-11T21:28:47.909Z,100.00
2022-08-11T21:31:33.591Z,100.00
2022-08-11T21:34:19.499Z,100.00
2022-08-11T21:37:05.763Z,100.00
2022-08-11T21:39:52.931Z,100.00
2022-08-11T21:42:39.489Z,100.00
2022-08-11T21:45:26.562Z,100.00
2022-08-11T21:48:14.377Z,100.00
2022-08-11T21:50:59.579Z,100.00
2022-08-11T21:53:45.471Z,100.00
2022-08-11T21:56:31.212Z,100.00
2022-08-11T21:59:17.167Z,100.00
2022-08-11T22:02:03.630Z,100.00
2022-08-11T22:04:52.351Z,100.00
2022-08-11T22:07:39.382Z,100.00
2022-08-11T22:10:41.464Z,100.00
2022-08-11T22:13:32.399Z,100.00
2022-08-11T22:16:18.760Z,100.00
2022-08-11T22:19:08.575Z,100.00
2022-08-11T22:22:01.311Z,100.00
2022-08-11T22:24:49.209Z,100.00
2022-08-11T22:27:34.576Z,100.00
2022-08-11T22:30:19.857Z,100.00
2022-08-11T22:33:05.694Z,100.00
2022-08-11T22:35:51.419Z,100.00
2022-08-11T22:38:37.786Z,100.00
2022-08-11T22:41:23.169Z,100.00
2022-08-11T22:44:08.481Z,100.00
2022-08-11T22:46:54.316Z,100.00
2022-08-11T22:49:42.348Z,100.00
2022-08-11T22:52:43.734Z,100.00
2022-08-11T22:55:29.617Z,100.00
2022-08-11T22:58:14.902Z,100.00
2022-08-11T23:01:00.391Z,100.00
2022-08-11T23:03:45.699Z,100.00
2022-08-11T23:06:32.575Z,100.00
2022-08-11T23:09:18.849Z,100.00
2022-08-11T23:12:07.658Z,100.00
2022-08-11T23:14:56.960Z,100.00
2022-08-11T23:17:42.647Z,100.00
2022-08-11T23:20:34.052Z,100.00
2022-08-11T23:23:27.862Z,100.00
2022-08-11T23:26:14.672Z,100.00
2022-08-11T23:29:04.908Z,100.00
2022-08-11T23:31:53.939Z,100.00
2022-08-11T23:35:04.643Z,100.00
2022-08-11T23:37:46.534Z,100.00
2022-08-11T23:40:32.058Z,100.00
2022-08-11T23:43:17.484Z,100.00
2022-08-11T23:46:02.862Z,100.00
2022-08-11T23:48:49.262Z,100.00
2022-08-11T23:51:37.843Z,100.00
2022-08-11T23:54:28.263Z,100.00
2022-08-11T23:57:14.037Z,100.00
2022-08-11T23:59:59.733Z,100.00
